Time;durP1;ratioP1;P1;durP2;ratioP2;P2;SDS_P1;SDS_P2;PMS_P1;PMS_P2;Temp;Humidity;BMP_temperature;BMP_pressure;BME280_temperature;BME280_humidity;BME280_pressure;Samples;Min_cycle;Max_cycle;Signal;HPM_P1;HPM_P2
2021/03/24 00:01:34;;;;;;;15.77;9.35;;;128.70;2073.60;;;;;;5009654;28;20022;-67
2021/03/24 00:04:00;;;;;;;17.67;9.40;;;128.70;2099.20;;;;;;5006917;28;20030;-68
2021/03/24 00:06:26;;;;;;;17.70;9.95;;;128.70;2099.20;;;;;;5009602;28;20032;-67
2021/03/24 00:08:51;;;;;;;19.40;10.60;;;128.80;2099.20;;;;;;4994756;28;20022;-67
2021/03/24 00:11:17;;;;;;;14.98;9.30;;;128.80;2099.20;;;;;;4991773;28;20229;-67
2021/03/24 00:13:44;;;;;;;15.65;8.57;;;128.80;2099.20;;;;;;5006254;28;20509;-68
2021/03/24 00:16:11;;;;;;;15.93;7.90;;;128.90;2099.20;;;;;;4995252;28;20038;-69
2021/03/24 00:18:38;;;;;;;12.98;7.93;;;128.90;2099.20;;;;;;4994316;28;20025;-68
2021/03/24 00:21:06;;;;;;;13.45;7.78;;;128.90;2099.20;;;;;;4993724;28;20312;-68
2021/03/24 00:23:32;;;;;;;14.32;7.57;;;153.60;2073.60;;;;;;4993445;28;20089;-72
2021/03/24 00:25:58;;;;;;;13.57;7.70;;;153.60;2099.20;;;;;;4995608;28;20270;-67
2021/03/24 00:28:24;;;;;;;14.70;7.55;;;153.60;2099.20;;;;;;4994412;28;20049;-67
2021/03/24 00:30:50;;;;;;;12.50;7.20;;;153.60;2073.60;;;;;;4996581;28;20054;-68
2021/03/24 00:33:22;;;;;;;13.63;7.43;;;153.60;2073.60;;;;;;4994673;28;20412;-68
2021/03/24 00:35:49;;;;;;;12.02;7.45;;;153.70;2073.60;;;;;;4994988;28;20035;-68
2021/03/24 00:38:16;;;;;;;13.80;7.53;;;153.70;2073.60;;;;;;4997602;28;20030;-68
2021/03/24 00:40:45;;;;;;;13.65;7.22;;;153.70;2073.60;;;;;;4992748;28;20383;-68
2021/03/24 00:43:11;;;;;;;14.10;7.15;;;153.70;2073.60;;;;;;5000476;28;20030;-69
2021/03/24 00:45:38;;;;;;;16.10;7.85;;;153.70;2073.60;;;;;;5012811;28;20569;-68
2021/03/24 00:48:16;;;;;;;14.07;7.88;;;153.70;2073.60;;;;;;4998563;28;20030;-67
2021/03/24 00:50:44;;;;;;;14.15;7.28;;;153.70;2099.20;;;;;;4994453;28;20450;-68
2021/03/24 00:53:11;;;;;;;13.80;7.85;;;153.70;2099.20;;;;;;4995352;28;20054;-67
2021/03/24 00:55:37;;;;;;;15.45;8.00;;;153.60;2099.20;;;;;;4993685;28;20023;-68
2021/03/24 00:58:03;;;;;;;15.70;7.75;;;153.60;2099.20;;;;;;4994378;28;20153;-67
2021/03/24 01:00:32;;;;;;;15.20;8.32;;;153.60;2099.20;;;;;;4996467;28;20030;-67
2021/03/24 01:03:01;;;;;;;13.07;7.22;;;153.60;2124.80;;;;;;4995710;28;20088;-67
2021/03/24 01:05:27;;;;;;;15.35;8.00;;;153.60;2124.80;;;;;;4994413;28;20028;-68
2021/03/24 01:08:02;;;;;;;13.63;7.82;;;153.60;2124.80;;;;;;4994604;28;20122;-68
2021/03/24 01:10:33;;;;;;;15.98;7.97;;;153.60;2124.80;;;;;;4992831;28;20093;-68
2021/03/24 01:12:58;;;;;;;14.40;7.57;;;153.60;2124.80;;;;;;4991604;28;20022;-67
2021/03/24 01:15:25;;;;;;;14.15;7.38;;;153.60;2150.40;;;;;;4998806;28;20085;-68
2021/03/24 01:17:54;;;;;;;16.95;8.57;;;153.60;2124.80;;;;;;4997897;28;20034;-67
2021/03/24 01:20:24;;;;;;;13.35;7.88;;;153.60;2150.40;;;;;;4998546;28;20129;-68
2021/03/24 01:22:56;;;;;;;17.00;8.70;;;128.90;2150.40;;;;;;5000622;28;20037;-68
2021/03/24 01:25:23;;;;;;;14.63;7.68;;;128.90;2150.40;;;;;;4996079;28;20186;-67
2021/03/24 01:27:50;;;;;;;14.18;7.30;;;128.90;2150.40;;;;;;5007504;28;20026;-68
2021/03/24 01:30:17;;;;;;;15.65;8.15;;;128.90;2150.40;;;;;;5007380;28;20018;-67
2021/03/24 01:32:43;;;;;;;12.75;7.55;;;128.80;2176.00;;;;;;5005324;28;20459;-66
2021/03/24 01:35:09;;;;;;;17.33;8.57;;;128.80;2176.00;;;;;;4994830;28;20070;-67
2021/03/24 01:37:40;;;;;;;15.27;8.20;;;128.80;2176.00;;;;;;5005306;28;20050;-67
2021/03/24 01:40:08;;;;;;;15.85;9.02;;;128.70;2176.00;;;;;;5011659;28;20029;-66
2021/03/24 01:42:34;;;;;;;14.60;8.65;;;128.80;2201.60;;;;;;5011777;28;20041;-66
2021/03/24 01:45:07;;;;;;;14.98;8.52;;;128.60;2201.60;;;;;;5006216;28;20030;-69
2021/03/24 01:47:34;;;;;;;17.10;8.65;;;128.70;2201.60;;;;;;5006280;28;20022;-69
2021/03/24 01:50:00;;;;;;;15.82;8.93;;;128.70;2201.60;;;;;;5011763;28;20022;-69
2021/03/24 01:52:26;;;;;;;14.18;8.30;;;128.60;2227.20;;;;;;5011607;28;20050;-69
2021/03/24 01:54:53;;;;;;;15.95;8.25;;;128.60;2227.20;;;;;;5011289;28;20435;-68
2021/03/24 01:57:26;;;;;;;17.20;8.80;;;128.60;2227.20;;;;;;5001348;28;20034;-69
2021/03/24 01:59:55;;;;;;;16.63;8.25;;;128.60;2227.20;;;;;;5006068;28;20411;-68
2021/03/24 02:02:29;;;;;;;15.40;8.18;;;128.50;2227.20;;;;;;4999451;28;20159;-69
2021/03/24 02:04:55;;;;;;;17.20;9.35;;;128.60;2252.80;;;;;;5011693;28;20018;-68
2021/03/24 02:07:26;;;;;;;13.55;7.97;;;128.60;2252.80;;;;;;5011316;28;20029;-69
2021/03/24 02:09:59;;;;;;;12.15;7.45;;;128.60;2252.80;;;;;;5011463;28;20018;-69
2021/03/24 02:12:54;;;;;;;13.18;7.60;;;128.50;2252.80;;;;;;5011171;28;20014;-66
2021/03/24 02:15:27;;;;;;;14.60;7.40;;;128.50;2227.20;;;;;;5006606;28;20038;-67
2021/03/24 02:17:54;;;;;;;15.02;7.57;;;128.60;2227.20;;;;;;5011273;28;20037;-68
2021/03/24 02:20:35;;;;;;;13.02;7.30;;;128.60;2227.20;;;;;;5011310;28;20022;-68
2021/03/24 02:23:19;;;;;;;12.23;7.38;;;128.60;2227.20;;;;;;5009510;28;20029;-71
2021/03/24 02:25:51;;;;;;;13.85;7.32;;;128.60;2252.80;;;;;;5011143;28;20505;-67
2021/03/24 02:28:19;;;;;;;12.27;6.80;;;128.60;2227.20;;;;;;5011690;28;20433;-67
2021/03/24 02:30:47;;;;;;;12.10;7.10;;;128.60;2252.80;;;;;;5012674;28;20034;-69
2021/03/24 02:33:29;;;;;;;10.95;7.40;;;128.60;2252.80;;;;;;5015351;28;20037;-68
2021/03/24 02:36:01;;;;;;;11.48;6.75;;;128.60;2252.80;;;;;;5015168;28;20399;-69
2021/03/24 02:38:28;;;;;;;13.25;7.30;;;128.60;2227.20;;;;;;5014756;28;20022;-70
2021/03/24 02:40:56;;;;;;;14.55;8.02;;;128.60;2227.20;;;;;;5015031;28;20026;-69
2021/03/24 02:43:23;;;;;;;12.18;6.85;;;128.50;2252.80;;;;;;5015416;28;20022;-68
2021/03/24 02:45:50;;;;;;;12.55;7.30;;;128.50;2227.20;;;;;;5015401;28;20034;-70
2021/03/24 02:48:22;;;;;;;11.13;7.05;;;128.50;2227.20;;;;;;5014891;28;20036;-70
2021/03/24 02:50:51;;;;;;;12.50;6.93;;;128.50;2227.20;;;;;;5014393;28;20028;-69
2021/03/24 02:53:17;;;;;;;10.88;6.70;;;128.50;2227.20;;;;;;5014111;28;20028;-68
2021/03/24 02:55:43;;;;;;;11.02;6.88;;;128.40;2227.20;;;;;;5014677;28;20100;-69
2021/03/24 02:58:13;;;;;;;11.25;6.40;;;128.30;2252.80;;;;;;5014760;28;20041;-68
2021/03/24 03:00:39;;;;;;;11.10;6.78;;;128.20;2252.80;;;;;;5014460;28;20026;-68
2021/03/24 03:03:14;;;;;;;13.05;7.28;;;128.00;2252.80;;;;;;5014844;28;20022;-68
2021/03/24 03:05:41;;;;;;;11.93;7.03;;;103.30;2227.20;;;;;;5015589;28;20043;-68
2021/03/24 03:08:19;;;;;;;12.15;6.63;;;103.20;2227.20;;;;;;5013564;28;20368;-68
2021/03/24 03:10:44;;;;;;;11.38;7.10;;;103.20;2227.20;;;;;;5014088;28;20028;-68
2021/03/24 03:13:30;;;;;;;11.45;6.72;;;103.20;2227.20;;;;;;5014724;28;20026;-68
2021/03/24 03:16:17;;;;;;;12.38;7.30;;;103.20;2227.20;;;;;;5014841;28;20026;-68
2021/03/24 03:19:35;;;;;;;10.93;6.80;;;103.10;2227.20;;;;;;5015605;28;20096;-66
2021/03/24 03:22:10;;;;;;;12.40;7.20;;;103.10;2227.20;;;;;;5009375;28;20096;-68
2021/03/24 03:24:46;;;;;;;11.00;7.30;;;103.00;2227.20;;;;;;5014370;28;20054;-68
2021/03/24 03:27:16;;;;;;;11.02;6.97;;;103.00;2227.20;;;;;;5014054;28;20045;-68
2021/03/24 03:29:44;;;;;;;12.40;7.22;;;102.90;2227.20;;;;;;5012766;28;20022;-68
2021/03/24 03:32:15;;;;;;;13.15;7.03;;;102.80;2227.20;;;;;;5014199;28;20026;-68
2021/03/24 03:34:44;;;;;;;12.55;7.15;;;102.70;2227.20;;;;;;5014119;28;20018;-68
2021/03/24 03:37:09;;;;;;;12.10;7.50;;;102.70;2227.20;;;;;;5014005;28;20045;-69
2021/03/24 03:39:37;;;;;;;12.30;7.25;;;102.70;2227.20;;;;;;5013646;28;20018;-68
2021/03/24 03:42:04;;;;;;;11.98;7.38;;;102.70;2227.20;;;;;;5013424;28;20030;-68
2021/03/24 03:44:31;;;;;;;12.45;7.70;;;102.60;2227.20;;;;;;5013753;28;20034;-68
2021/03/24 03:47:04;;;;;;;13.18;7.78;;;102.60;2227.20;;;;;;5014264;28;20030;-68
2021/03/24 03:49:30;;;;;;;12.80;8.27;;;102.50;2227.20;;;;;;5013717;28;20152;-68
2021/03/24 03:55:13;;;;;;;13.52;7.75;;;102.40;2227.20;;;;;;5013171;28;20032;-70
2021/03/24 03:57:53;;;;;;;11.93;7.70;;;77.70;2227.20;;;;;;5013682;28;20033;-68
2021/03/24 04:00:26;;;;;;;13.27;7.50;;;77.70;2227.20;;;;;;5013453;28;20080;-69
2021/03/24 04:03:00;;;;;;;12.10;7.53;;;77.60;2227.20;;;;;;5013884;28;20036;-69
2021/03/24 04:05:38;;;;;;;11.25;7.78;;;77.60;2227.20;;;;;;5013751;28;20048;-68
2021/03/24 04:08:14;;;;;;;14.35;8.68;;;77.60;2227.20;;;;;;5013558;28;20030;-71
2021/03/24 04:10:55;;;;;;;14.13;8.38;;;77.70;2227.20;;;;;;5001268;28;20026;-69
2021/03/24 04:13:24;;;;;;;13.73;7.93;;;77.70;2227.20;;;;;;5013564;28;20018;-68
2021/03/24 04:15:51;;;;;;;13.07;7.93;;;77.70;2227.20;;;;;;5013221;28;20040;-68
2021/03/24 04:18:26;;;;;;;13.27;8.07;;;77.70;2227.20;;;;;;5013497;28;20069;-68
2021/03/24 04:20:54;;;;;;;11.95;7.82;;;77.60;2227.20;;;;;;5013074;28;20029;-68
2021/03/24 04:23:24;;;;;;;13.18;8.43;;;77.60;2227.20;;;;;;5013483;28;20121;-68
2021/03/24 04:26:07;;;;;;;;;;;77.60;2227.20;;;;;;5013307;28;20068;-68
2021/03/24 04:28:38;;;;;;;14.60;8.40;;;77.60;2227.20;;;;;;5013653;28;19909;-68
2021/03/24 04:31:09;;;;;;;14.98;9.40;;;77.60;2227.20;;;;;;5013766;28;20220;-67
2021/03/24 04:33:35;;;;;;;14.73;8.98;;;77.60;2227.20;;;;;;5013065;28;20022;-68
2021/03/24 04:36:12;;;;;;;16.60;9.68;;;77.60;2227.20;;;;;;5012983;28;20050;-68
2021/03/24 04:38:50;;;;;;;16.42;10.20;;;77.50;2227.20;;;;;;5012597;28;20034;-69
2021/03/24 04:41:38;;;;;;;15.73;9.82;;;77.50;2227.20;;;;;;5013087;28;20036;-68
2021/03/24 04:44:15;;;;;;;17.70;9.30;;;77.60;2227.20;;;;;;5012755;28;20022;-69
2021/03/24 04:46:43;;;;;;;14.77;9.15;;;77.60;2227.20;;;;;;5012801;28;20471;-68
2021/03/24 04:49:14;;;;;;;16.60;10.13;;;77.70;2227.20;;;;;;5012224;28;20025;-68
2021/03/24 04:51:42;;;;;;;14.98;9.20;;;102.40;2227.20;;;;;;5013016;28;20032;-68
2021/03/24 04:54:16;;;;;;;15.38;9.73;;;102.50;2227.20;;;;;;5011482;28;20670;-68
2021/03/24 04:56:52;;;;;;;15.68;9.55;;;102.70;2227.20;;;;;;5012675;28;20018;-68
2021/03/24 04:59:33;;;;;;;15.68;9.23;;;102.90;2227.20;;;;;;5012381;28;20052;-68
2021/03/24 05:02:10;;;;;;;13.73;9.13;;;103.10;2227.20;;;;;;5012602;28;20076;-68
2021/03/24 05:04:47;;;;;;;15.60;9.73;;;103.20;2227.20;;;;;;5012735;28;20049;-68
2021/03/24 05:07:36;;;;;;;14.27;8.98;;;128.10;2252.80;;;;;;5002646;28;20061;-68
2021/03/24 05:10:13;;;;;;;15.15;9.50;;;128.30;2252.80;;;;;;5012255;28;20084;-68
2021/03/24 05:12:44;;;;;;;14.27;9.13;;;128.60;2252.80;;;;;;5012967;28;20466;-68
2021/03/24 05:15:19;;;;;;;13.02;8.95;;;128.90;2252.80;;;;;;5012093;28;20513;-68
2021/03/24 05:17:45;;;;;;;15.25;8.77;;;153.80;2252.80;;;;;;5012456;28;20036;-68
2021/03/24 05:20:43;;;;;;;14.00;9.20;;;153.90;2252.80;;;;;;5011836;28;20026;-68
2021/03/24 05:23:13;;;;;;;14.93;9.63;;;153.80;2252.80;;;;;;5012515;28;20040;-68
2021/03/24 05:25:42;;;;;;;15.15;10.05;;;128.80;2252.80;;;;;;5011921;28;20363;-68
2021/03/24 05:28:37;;;;;;;16.25;10.55;;;128.50;2252.80;;;;;;5012124;28;20032;-68
2021/03/24 05:31:15;;;;;;;18.15;10.75;;;128.50;2252.80;;;;;;5012188;28;20499;-69
2021/03/24 05:33:45;;;;;;;18.05;10.57;;;153.90;2252.80;;;;;;5012158;28;20033;-68
2021/03/24 05:36:20;;;;;;;15.93;10.40;;;154.00;2252.80;;;;;;5012029;28;20077;-68
2021/03/24 05:38:50;;;;;;;20.27;12.02;;;153.80;2252.80;;;;;;5011142;28;20045;-69
2021/03/24 05:41:35;;;;;;;19.55;12.32;;;153.60;2252.80;;;;;;5012003;28;20029;-68
2021/03/24 05:44:34;;;;;;;21.63;14.10;;;128.90;2252.80;;;;;;5011848;28;20022;-69
2021/03/24 05:47:39;;;;;;;18.80;12.63;;;128.80;2252.80;;;;;;5010683;28;20061;-68
2021/03/24 05:50:11;;;;;;;19.42;13.43;;;128.70;2252.80;;;;;;5011721;28;20096;-68
2021/03/24 05:53:03;;;;;;;22.23;13.57;;;128.80;2252.80;;;;;;5011605;28;20391;-68
2021/03/24 05:55:38;;;;;;;24.50;15.05;;;153.60;2252.80;;;;;;5011570;28;20030;-68
2021/03/24 05:58:17;;;;;;;29.52;19.45;;;153.90;2252.80;;;;;;5011631;28;20100;-68
2021/03/24 06:01:03;;;;;;;19.90;13.02;;;154.10;2252.80;;;;;;5011319;28;20030;-68
2021/03/24 06:04:00;;;;;;;20.85;13.02;;;154.10;2252.80;;;;;;4992010;28;20069;-68
2021/03/24 06:06:58;;;;;;;18.63;12.40;;;154.10;2252.80;;;;;;5011152;28;20048;-69
2021/03/24 06:09:47;;;;;;;19.48;11.88;;;154.10;2252.80;;;;;;4981769;28;20183;-68
2021/03/24 06:12:37;;;;;;;17.95;11.82;;;153.90;2252.80;;;;;;4997963;28;20034;-68
2021/03/24 06:15:06;;;;;;;18.25;11.93;;;153.70;2252.80;;;;;;5011475;28;20080;-68
2021/03/24 06:18:15;;;;;;;21.27;12.48;;;153.70;2252.80;;;;;;5011822;28;20061;-68
2021/03/24 06:21:31;;;;;;;18.00;12.07;;;153.60;2252.80;;;;;;5011004;28;20029;-68
2021/03/24 06:24:34;;;;;;;18.33;12.27;;;153.60;2252.80;;;;;;4987394;28;20117;-68
2021/03/24 06:27:18;;;;;;;18.40;11.93;;;153.60;2252.80;;;;;;5011367;28;20363;-68
2021/03/24 06:29:59;;;;;;;18.63;12.50;;;153.60;2252.80;;;;;;5011099;28;20026;-69
2021/03/24 06:32:43;;;;;;;;;;;153.70;2252.80;;;;;;5011444;28;20570;-68
2021/03/24 06:35:18;;;;;;;18.05;11.82;;;154.00;2252.80;;;;;;5011654;28;19916;-68
2021/03/24 06:38:02;;;;;;;19.25;12.95;;;154.20;2252.80;;;;;;4997448;28;20068;-70
2021/03/24 06:40:43;;;;;;;20.70;14.27;;;154.50;2252.80;;;;;;5010726;28;20534;-68
2021/03/24 06:43:30;;;;;;;22.23;14.00;;;205.10;2252.80;;;;;;5011239;28;21102;-69
2021/03/24 06:46:21;;;;;;;20.98;13.55;;;205.60;2176.00;;;;;;5011055;28;20442;-67
2021/03/24 06:48:56;;;;;;;16.33;11.90;;;256.20;1945.60;;;;;;5010942;28;20025;-68
2021/03/24 06:51:52;;;;;;;19.25;13.57;;;282.30;1792.00;;;;;;4997677;28;20044;-67
2021/03/24 06:54:29;;;;;;;20.23;13.70;;;281.60;1843.20;;;;;;5011201;28;20030;-67
2021/03/24 06:57:10;;;;;;;20.42;14.55;;;256.40;1843.20;;;;;;5011057;28;20018;-67
2021/03/24 06:59:45;;;;;;;25.48;18.10;;;231.00;1920.00;;;;;;5011085;28;20379;-67
2021/03/24 07:02:32;;;;;;;21.38;15.82;;;256.90;1792.00;;;;;;5011127;28;20021;-68
2021/03/24 07:05:22;;;;;;;21.02;15.07;;;231.20;1894.40;;;;;;5011240;28;20582;-66
2021/03/24 07:08:27;;;;;;;20.75;15.00;;;256.20;1868.80;;;;;;5010797;28;20395;-67
2021/03/24 07:11:23;;;;;;;21.42;14.57;;;256.10;1843.20;;;;;;5010914;28;20022;-67
2021/03/24 07:14:03;;;;;;;18.02;13.80;;;281.80;1715.20;;;;;;5011003;28;20057;-67
2021/03/24 07:16:35;;;;;;;17.77;12.05;;;282.50;1664.00;;;;;;5010900;28;20037;-67
2021/03/24 07:19:19;;;;;;;18.52;12.85;;;256.70;1689.60;;;;;;5014166;28;20033;-67
2021/03/24 07:22:06;;;;;;;17.10;12.52;;;256.10;1766.40;;;;;;5014004;28;20026;-66
2021/03/24 07:25:14;;;;;;;24.95;16.67;;;230.80;1817.60;;;;;;5014310;28;20026;-67
2021/03/24 07:27:51;;;;;;;27.02;17.40;;;332.80;1638.40;;;;;;5014140;28;20030;-67
2021/03/24 07:30:40;;;;;;;16.85;12.57;;;307.20;1612.80;;;;;;5013788;28;20022;-67
2021/03/24 07:33:08;;;;;;;17.85;12.98;;;281.70;1638.40;;;;;;5014193;28;20068;-67
2021/03/24 07:35:42;;;;;;;17.15;12.40;;;256.50;1689.60;;;;;;5013806;28;20025;-66
2021/03/24 07:38:29;;;;;;;19.30;14.00;;;231.30;1715.20;;;;;;5013913;28;20102;-69
2021/03/24 07:41:13;;;;;;;15.73;11.18;;;231.20;1740.80;;;;;;5013954;28;20025;-68
2021/03/24 07:44:16;;;;;;;16.45;11.63;;;230.90;1740.80;;;;;;5013927;28;20080;-68
2021/03/24 07:47:06;;;;;;;21.88;14.25;;;230.50;1715.20;;;;;;5003920;28;20045;-68
2021/03/24 07:49:47;;;;;;;18.07;12.37;;;230.60;1740.80;;;;;;5013473;28;20022;-68
2021/03/24 07:52:31;;;;;;;16.00;10.95;;;205.70;1817.60;;;;;;5013841;28;20501;-68
2021/03/24 07:55:15;;;;;;;15.85;10.57;;;230.50;1740.80;;;;;;5002277;28;20405;-68
2021/03/24 07:57:58;;;;;;;14.18;10.80;;;231.10;1689.60;;;;;;5013797;28;20390;-68
2021/03/24 08:00:42;;;;;;;18.15;12.75;;;282.50;1561.60;;;;;;5012738;28;20100;-68
2021/03/24 08:03:38;;;;;;;14.40;9.90;;;282.30;1536.00;;;;;;5012867;28;20032;-66
2021/03/24 08:06:27;;;;;;;14.00;9.57;;;256.60;1536.00;;;;;;5013506;28;20575;-68
2021/03/24 08:09:27;;;;;;;12.82;10.63;;;256.20;1561.60;;;;;;5006074;28;20013;-68
2021/03/24 08:12:25;;;;;;;15.63;10.30;;;282.50;1459.20;;;;;;5013404;28;20022;-68
2021/03/24 08:15:06;;;;;;;16.50;10.35;;;410.50;1203.20;;;;;;4996283;28;20034;-66
2021/03/24 08:17:38;;;;;;;;;;;435.20;1126.40;;;;;;5007790;28;20022;-66
2021/03/24 08:20:49;;;;;;;21.70;12.75;;;358.80;1254.40;;;;;;5013082;28;20019;-69
2021/03/24 08:23:52;;;;;;;22.58;15.15;;;333.40;1459.20;;;;;;4971965;28;20027;-69
2021/03/24 08:26:39;;;;;;;14.57;11.25;;;333.40;1459.20;;;;;;4971833;28;20047;-69
2021/03/24 08:29:20;;;;;;;16.95;12.38;;;307.20;1561.60;;;;;;5008901;28;20041;-69
2021/03/24 08:32:13;;;;;;;27.58;16.20;;;282.00;1587.20;;;;;;5012996;28;20589;-68
2021/03/24 08:35:18;;;;;;;21.83;13.10;;;281.70;1638.40;;;;;;5007943;28;20510;-69
2021/03/24 08:37:49;;;;;;;13.05;10.23;;;256.60;1612.80;;;;;;5005096;28;20050;-68
2021/03/24 08:40:53;;;;;;;12.27;10.35;;;359.00;1382.40;;;;;;5012643;28;20080;-68
2021/03/24 08:43:26;;;;;;;12.27;10.35;;;487.30;1049.60;;;;;;5001132;28;20037;-69
2021/03/24 08:46:27;;;;;;;16.27;11.57;;;435.80;1126.40;;;;;;5012619;28;20084;-68
2021/03/24 08:49:10;;;;;;;14.02;10.05;;;384.00;1305.60;;;;;;4997770;28;20082;-69
2021/03/24 08:51:54;;;;;;;13.00;9.73;;;333.00;1433.60;;;;;;5003688;28;20022;-68
2021/03/24 08:54:32;;;;;;;11.45;8.57;;;333.40;1356.80;;;;;;5010731;28;20040;-69
2021/03/24 08:57:13;;;;;;;12.60;9.30;;;307.80;1382.40;;;;;;5012621;28;20465;-68
2021/03/24 08:59:46;;;;;;;11.40;9.50;;;308.10;1331.20;;;;;;5010536;28;20040;-68
2021/03/24 09:02:36;;;;;;;12.68;10.80;;;359.00;1305.60;;;;;;5006640;28;20391;-68
2021/03/24 09:05:28;;;;;;;13.23;10.77;;;435.80;1126.40;;;;;;4996365;28;20056;-68
2021/03/24 09:07:59;;;;;;;12.65;10.50;;;563.40;998.40;;;;;;4990669;28;20031;-74
2021/03/24 09:10:48;;;;;;;10.98;9.23;;;666.00;844.80;;;;;;4998073;28;20565;-67
2021/03/24 09:13:25;;;;;;;10.60;8.20;;;691.80;768.00;;;;;;5008467;28;20028;-67
2021/03/24 09:16:20;;;;;;;12.35;9.70;;;615.20;793.60;;;;;;5003187;28;20026;-67
2021/03/24 09:18:59;;;;;;;14.10;10.95;;;512.90;870.40;;;;;;4997588;28;20046;-67
2021/03/24 09:21:33;;;;;;;12.65;10.60;;;436.10;998.40;;;;;;4997764;28;20051;-67
2021/03/24 09:24:23;;;;;;;14.77;10.95;;;460.80;1049.60;;;;;;4992589;28;20030;-67
2021/03/24 09:26:58;;;;;;;17.63;14.50;;;384.20;1126.40;;;;;;5004274;28;20402;-67
2021/03/24 09:29:43;;;;;;;13.15;9.75;;;384.10;1177.60;;;;;;4993348;28;20056;-68
2021/03/24 09:32:24;;;;;;;11.80;9.48;;;589.10;870.40;;;;;;4998936;28;20039;-67
2021/03/24 09:35:04;;;;;;;11.38;8.48;;;512.70;896.00;;;;;;4992813;28;20069;-67
2021/03/24 09:37:39;;;;;;;13.85;10.30;;;461.00;1024.00;;;;;;4993174;28;20050;-67
2021/03/24 09:40:24;;;;;;;13.65;9.07;;;486.90;947.20;;;;;;4991366;28;20026;-67
2021/03/24 09:42:52;;;;;;;10.93;8.90;;;487.00;947.20;;;;;;5004652;28;20029;-66
2021/03/24 09:45:37;;;;;;;10.60;8.05;;;410.50;1024.00;;;;;;4999151;28;20030;-69
2021/03/24 09:48:08;;;;;;;9.45;6.20;;;563.20;896.00;;;;;;5005728;28;20018;-68
2021/03/24 09:50:45;;;;;;;9.27;6.70;;;717.30;716.80;;;;;;4994099;28;20040;-66
2021/03/24 09:53:21;;;;;;;8.82;6.70;;;716.90;716.80;;;;;;4999460;28;20101;-67
2021/03/24 09:56:04;;;;;;;7.85;5.97;;;794.00;665.60;;;;;;5006691;28;20038;-71
2021/03/24 09:59:11;;;;;;;11.90;8.60;;;615.20;742.40;;;;;;5002767;28;20407;-67
2021/03/24 10:01:46;;;;;;;8.32;6.30;;;538.00;819.20;;;;;;5002540;28;20046;-75
2021/03/24 10:04:32;;;;;;;11.52;8.10;;;461.50;896.00;;;;;;4991511;28;20022;-67
2021/03/24 10:07:14;;;;;;;12.18;8.63;;;460.80;896.00;;;;;;4994843;28;20098;-67
2021/03/24 10:09:58;;;;;;;8.75;6.63;;;563.60;793.60;;;;;;4992271;28;20030;-66
2021/03/24 10:12:53;;;;;;;9.13;6.82;;;589.30;742.40;;;;;;5002057;28;20066;-66
2021/03/24 10:15:25;;;;;;;11.52;9.40;;;461.50;844.80;;;;;;4997964;28;20025;-66
2021/03/24 10:18:06;;;;;;;7.95;5.93;;;409.70;972.80;;;;;;5012706;28;20041;-70
2021/03/24 10:20:40;;;;;;;;;;;384.00;998.40;;;;;;5006365;28;20390;-67
2021/03/24 10:23:22;;;;;;;9.40;7.18;;;384.40;972.80;;;;;;4993138;28;19933;-67
2021/03/24 10:25:56;;;;;;;7.30;4.20;;;358.50;998.40;;;;;;5001112;28;20023;-68
2021/03/24 10:28:35;;;;;;;10.75;6.18;;;358.80;1024.00;;;;;;4996678;28;20023;-68
2021/03/24 10:31:12;;;;;;;8.32;4.65;;;358.60;1024.00;;;;;;5008869;28;20026;-68
2021/03/24 10:33:56;;;;;;;6.15;3.78;;;359.10;998.40;;;;;;4999385;28;20023;-69
2021/03/24 10:36:30;;;;;;;10.48;6.88;;;460.90;921.60;;;;;;5004056;28;20050;-68
2021/03/24 10:39:29;;;;;;;9.13;5.88;;;615.20;742.40;;;;;;5003431;28;20136;-68
2021/03/24 10:41:58;;;;;;;12.15;6.82;;;768.30;640.00;;;;;;5004839;28;20030;-67
2021/03/24 10:44:42;;;;;;;14.00;10.70;;;692.10;614.40;;;;;;5002808;28;20030;-67
2021/03/24 10:47:21;;;;;;;6.35;4.43;;;845.20;588.80;;;;;;5003396;28;20584;-67
2021/03/24 10:49:52;;;;;;;10.93;7.53;;;871.30;537.60;;;;;;4999513;28;20018;-67
2021/03/24 10:52:20;;;;;;;7.95;5.78;;;922.40;512.00;;;;;;5012652;28;20029;-68
2021/03/24 10:54:57;;;;;;;9.98;6.35;;;973.00;512.00;;;;;;5006859;28;20029;-67
2021/03/24 10:57:38;;;;;;;9.57;6.05;;;973.00;512.00;;;;;;5014519;28;20068;-68
2021/03/24 11:00:07;;;;;;;;;;;794.20;614.40;;;;;;5004707;28;20025;-69
2021/03/24 11:02:56;;;;;;;8.60;6.20;;;615.20;665.60;;;;;;5014274;28;19944;-67
2021/03/24 11:05:28;;;;;;;9.93;5.75;;;819.80;588.80;;;;;;4997275;28;20502;-67
2021/03/24 11:08:16;;;;;;;6.15;4.18;;;743.30;614.40;;;;;;5008834;28;20037;-68
2021/03/24 11:10:58;;;;;;;6.82;4.00;;;743.30;614.40;;;;;;5007712;28;20136;-67
2021/03/24 11:13:52;;;;;;;7.43;3.95;;;717.60;614.40;;;;;;5014221;28;20121;-67
2021/03/24 11:16:29;;;;;;;5.32;3.90;;;589.70;691.20;;;;;;5012506;28;20049;-67
2021/03/24 11:19:22;;;;;;;8.13;3.80;;;512.50;716.80;;;;;;5012860;28;20060;-68
2021/03/24 11:21:51;;;;;;;8.05;4.68;;;486.40;768.00;;;;;;5005385;28;20034;-67
2021/03/24 11:24:33;;;;;;;8.32;5.18;;;436.10;819.20;;;;;;5013035;28;20034;-68
2021/03/24 11:27:25;;;;;;;8.57;5.70;;;435.30;870.40;;;;;;5013929;28;20037;-67
2021/03/24 11:30:33;;;;;;;7.35;4.35;;;384.70;870.40;;;;;;5013686;28;20053;-67
2021/03/24 11:33:30;;;;;;;6.50;3.97;;;384.50;896.00;;;;;;5001697;28;20042;-69
2021/03/24 11:36:12;;;;;;;5.85;3.50;;;384.60;896.00;;;;;;5013144;28;20095;-70
2021/03/24 11:38:38;;;;;;;5.43;3.72;;;384.00;947.20;;;;;;5013562;28;20040;-70
2021/03/24 11:41:09;;;;;;;8.18;4.30;;;359.10;972.80;;;;;;5013481;28;20030;-70
2021/03/24 11:43:37;;;;;;;;;;;359.10;972.80;;;;;;5008098;28;20026;-67
2021/03/24 11:46:30;;;;;;;6.88;4.13;;;359.00;947.20;;;;;;5000934;28;19913;-69
2021/03/24 11:49:13;;;;;;;7.72;4.40;;;359.10;947.20;;;;;;4997271;28;20081;-70
2021/03/24 11:52:06;;;;;;;5.53;3.42;;;358.90;998.40;;;;;;5006013;28;20030;-69
2021/03/24 11:54:47;;;;;;;6.38;4.30;;;359.00;947.20;;;;;;5008613;28;20073;-69
2021/03/24 11:57:21;;;;;;;6.90;4.10;;;359.20;947.20;;;;;;5006037;28;20033;-69
2021/03/24 12:00:05;;;;;;;5.90;4.05;;;358.80;947.20;;;;;;5012572;28;20049;-69
2021/03/24 12:02:46;;;;;;;5.43;3.58;;;358.60;947.20;;;;;;5008751;28;20057;-67
2021/03/24 12:05:20;;;;;;;10.13;5.55;;;358.60;972.80;;;;;;5010184;28;20026;-69
2021/03/24 12:08:11;;;;;;;11.27;6.15;;;359.00;972.80;;;;;;5006902;28;20064;-69
2021/03/24 12:10:41;;;;;;;19.13;11.20;;;359.00;947.20;;;;;;5006757;28;20108;-69
2021/03/24 12:13:20;;;;;;;24.20;13.27;;;359.00;921.60;;;;;;5010747;28;20101;-68
2021/03/24 12:15:58;;;;;;;13.63;8.13;;;384.00;947.20;;;;;;4995328;28;20035;-68
2021/03/24 12:18:24;;;;;;;8.05;4.72;;;384.40;896.00;;;;;;5002560;28;20030;-72
2021/03/24 12:21:00;;;;;;;5.93;3.55;;;384.10;921.60;;;;;;4993376;28;20040;-68
2021/03/24 12:23:59;;;;;;;8.80;6.43;;;384.20;896.00;;;;;;5000010;28;20041;-69
2021/03/24 12:26:30;;;;;;;5.63;3.17;;;384.20;896.00;;;;;;4998982;28;20041;-67
2021/03/24 12:29:12;;;;;;;7.55;3.60;;;384.20;896.00;;;;;;4994863;28;20387;-66
2021/03/24 12:31:50;;;;;;;9.68;7.50;;;384.60;870.40;;;;;;5003570;28;20097;-69
2021/03/24 12:34:18;;;;;;;6.10;3.67;;;384.50;870.40;;;;;;4997869;28;20026;-67
2021/03/24 12:36:50;;;;;;;10.82;6.68;;;384.40;870.40;;;;;;5001657;28;20077;-69
2021/03/24 12:39:37;;;;;;;11.68;7.32;;;384.40;870.40;;;;;;5002779;28;20040;-68
2021/03/24 12:42:21;;;;;;;14.68;9.57;;;358.90;896.00;;;;;;5007913;28;20457;-68
2021/03/24 12:44:47;;;;;;;9.57;6.60;;;333.70;921.60;;;;;;5008625;28;20057;-68
2021/03/24 12:47:38;;;;;;;17.17;8.77;;;333.60;947.20;;;;;;4999758;28;20497;-66
2021/03/24 12:50:14;;;;;;;;;;;333.70;947.20;;;;;;5000713;28;20166;-66
2021/03/24 12:53:06;;;;;;;12.63;7.63;;;333.40;947.20;;;;;;4992704;28;19955;-67
2021/03/24 12:55:34;;;;;;;13.07;7.00;;;307.90;947.20;;;;;;4996953;28;20035;-66
2021/03/24 12:58:24;;;;;;;12.05;7.40;;;307.70;972.80;;;;;;5006643;28;20641;-66
2021/03/24 13:01:08;;;;;;;11.00;5.70;;;307.40;1024.00;;;;;;5006042;28;20105;-66
2021/03/24 13:04:21;;;;;;;10.70;7.35;;;307.90;998.40;;;;;;4996443;28;20259;-68
2021/03/24 13:06:50;;;;;;;7.35;3.80;;;435.20;819.20;;;;;;4988955;28;20122;-68
2021/03/24 13:09:27;;;;;;;9.93;6.35;;;410.50;819.20;;;;;;4996595;28;20426;-66
2021/03/24 13:12:30;;;;;;;11.90;5.72;;;435.80;793.60;;;;;;4999218;28;20021;-68